KBWD/BWD METAR and TAF weather

Enter ICAO airport designator
Station Type Date Time Source
KBWD METAR 2023/12/09 02:15 UTC NOAA

KBWD 090215Z AUTO 17006KT 10SM FEW039 BKN050 15/04 A2979 RMK AO1


Station Type Date Time Source
KBWD Decoded METAR 2023/12/09 02:15 UTC NOAA

Brownwood, Brownwood Regional Airport, TX, United States (KBWD) 31-48N 098-57W
Dec 08, 2023 - 09:15 PM EST / 2023.12.09 0215 UTC
Wind: from the S (170 degrees) at 7 MPH (6 KT):0
Visibility: 10 mile(s):0
Sky conditions: mostly cloudy
Temperature: 59 F (15 C)
Dew Point: 39 F (4 C)
Relative Humidity: 47%
Pressure (altimeter): 29.79 in. Hg (1008 hPa)
ob: KBWD 090215Z AUTO 17006KT 10SM FEW039 BKN050 15/04 A2979 RMK AO1
cycle: 2

Station Type Date Time Source
KBWD TAF UTC NOAA

Error!

Example: see airport list